Time;durP1;ratioP1;P1;durP2;ratioP2;P2;SDS_P1;SDS_P2;PMS_P1;PMS_P2;Temp;Humidity;BMP_temperature;BMP_pressure;BME280_temperature;BME280_humidity;BME280_pressure;Samples;Min_cycle;Max_cycle;Signal;HPM_P1;HPM_P2
2023/10/22 00:00:33;;;;;;;28.50;20.10;;;;;;;14.73;100.00;99400.61;108424;1252;60390;-61
2023/10/22 00:02:59;;;;;;;25.90;21.40;;;;;;;14.70;100.00;99396.20;108394;1252;72804;-60
2023/10/22 00:05:28;;;;;;;22.20;19.80;;;;;;;14.71;100.00;99388.16;106783;1252;68213;-60
2023/10/22 00:07:56;;;;;;;22.90;18.90;;;;;;;14.74;100.00;99386.20;104385;1268;72427;-60
2023/10/22 00:10:22;;;;;;;34.70;20.70;;;;;;;14.77;100.00;99386.06;104391;1253;62056;-60
2023/10/22 00:12:49;;;;;;;24.70;18.60;;;;;;;14.79;100.00;99382.55;104595;1256;60562;-61
2023/10/22 00:15:16;;;;;;;24.40;18.70;;;;;;;14.78;100.00;99376.42;104303;1257;73445;-60
2023/10/22 00:17:43;;;;;;;27.90;20.20;;;;;;;14.76;100.00;99376.23;104841;1257;69105;-60
2023/10/22 00:20:11;;;;;;;39.10;20.80;;;;;;;14.75;100.00;99375.75;104338;1255;73471;-60
2023/10/22 00:22:38;;;;;;;26.60;17.90;;;;;;;14.75;100.00;99376.27;104332;1267;61470;-61
2023/10/22 00:25:05;;;;;;;22.70;17.40;;;;;;;14.75;100.00;99380.87;104352;1268;59952;-61
2023/10/22 00:27:35;;;;;;;22.00;18.10;;;;;;;14.76;100.00;99382.60;104426;1257;73656;-60
2023/10/22 00:30:02;;;;;;;20.30;17.80;;;;;;;14.75;100.00;99379.80;104425;1265;69550;-61
2023/10/22 00:32:30;;;;;;;25.80;17.60;;;;;;;14.72;100.00;99375.81;104464;1252;73128;-59
2023/10/22 00:34:59;;;;;;;24.20;18.50;;;;;;;14.69;100.00;99373.86;104470;1253;61681;-59
2023/10/22 00:37:26;;;;;;;25.50;18.20;;;;;;;14.67;100.00;99371.67;104541;1253;60450;-59
2023/10/22 00:39:57;;;;;;;20.50;17.40;;;;;;;14.68;100.00;99372.50;104378;1269;74381;-59
2023/10/22 00:42:24;;;;;;;26.50;19.40;;;;;;;14.68;100.00;99377.64;104281;1260;68717;-59
2023/10/22 00:44:51;;;;;;;32.40;20.50;;;;;;;14.67;100.00;99379.98;104309;1258;71851;-59
2023/10/22 00:47:18;;;;;;;33.00;20.90;;;;;;;14.65;100.00;99383.27;104332;1255;62503;-59
2023/10/22 00:49:45;;;;;;;29.40;22.00;;;;;;;14.63;100.00;99379.01;104480;1254;60511;-60
2023/10/22 00:52:14;;;;;;;29.00;21.60;;;;;;;14.64;100.00;99382.82;106742;1257;74316;-59
2023/10/22 00:54:42;;;;;;;;;;;;;;;14.66;100.00;99374.05;106855;1255;70784;-59
2023/10/22 00:57:12;;;;;;;22.70;18.60;;;;;;;14.66;100.00;99374.71;104428;1253;72380;-59
2023/10/22 00:59:39;;;;;;;26.00;20.50;;;;;;;14.64;100.00;99374.18;104767;1254;61447;-60
2023/10/22 01:02:06;;;;;;;26.80;20.10;;;;;;;14.60;100.00;99383.04;104801;1257;61140;-59
2023/10/22 01:04:34;;;;;;;36.80;20.10;;;;;;;14.60;100.00;99389.79;104765;1257;73847;-60
2023/10/22 01:07:05;;;;;;;38.30;19.30;;;;;;;14.63;100.00;99403.34;104665;1257;70057;-59
2023/10/22 01:09:32;;;;;;;26.50;18.00;;;;;;;14.61;100.00;99398.55;104412;1253;72815;-59
2023/10/22 01:12:01;;;;;;;17.80;14.90;;;;;;;14.60;100.00;99388.02;104433;1265;61843;-58
2023/10/22 01:14:29;;;;;;;17.50;14.60;;;;;;;14.65;100.00;99386.64;104518;1254;60429;-58
2023/10/22 01:16:56;;;;;;;20.20;14.90;;;;;;;14.66;100.00;99389.89;104402;1264;74247;-58
2023/10/22 01:19:23;;;;;;;23.90;16.90;;;;;;;14.68;100.00;99383.98;104275;1273;70438;-59
2023/10/22 01:21:51;;;;;;;16.80;14.90;;;;;;;14.67;100.00;99389.84;108385;1252;72852;-59
2023/10/22 01:24:18;;;;;;;19.40;15.90;;;;;;;14.68;100.00;99394.56;105370;1253;61578;-58
2023/10/22 01:26:45;;;;;;;18.60;14.60;;;;;;;14.67;100.00;99397.63;105102;1253;60461;-60
2023/10/22 01:29:12;;;;;;;21.00;15.90;;;;;;;14.68;100.00;99394.92;104746;1258;74571;-59
2023/10/22 01:31:39;;;;;;;18.10;16.00;;;;;;;14.72;100.00;99391.45;104924;1263;69617;-58
2023/10/22 01:34:06;;;;;;;19.50;16.90;;;;;;;14.76;100.00;99391.77;104484;1259;72838;-60
2023/10/22 01:36:33;;;;;;;20.80;17.10;;;;;;;14.78;100.00;99392.12;104296;1254;61910;-59
2023/10/22 01:38:59;;;;;;;21.80;18.10;;;;;;;14.78;100.00;99394.77;104382;1257;59727;-58
2023/10/22 01:41:26;;;;;;;22.10;18.40;;;;;;;14.76;100.00;99396.48;104380;1256;73750;-62
2023/10/22 01:43:53;;;;;;;23.50;19.50;;;;;;;14.77;100.00;99394.66;104285;1259;69301;-59
2023/10/22 01:46:20;;;;;;;23.00;19.20;;;;;;;14.78;100.00;99394.06;104379;1252;73676;-60
2023/10/22 01:48:47;;;;;;;20.00;17.80;;;;;;;14.76;100.00;99397.02;104464;1270;61740;-59
2023/10/22 01:51:14;;;;;;;28.30;19.30;;;;;;;14.76;100.00;99398.98;104604;1264;60765;-59
2023/10/22 01:53:43;;;;;;;23.40;18.00;;;;;;;14.78;100.00;99396.41;108337;1253;72506;-59
2023/10/22 01:56:09;;;;;;;22.80;17.40;;;;;;;14.79;100.00;99395.45;104764;1257;69436;-59
2023/10/22 01:58:36;;;;;;;19.90;16.70;;;;;;;14.79;100.00;99400.74;104348;1269;72528;-60
2023/10/22 02:01:04;;;;;;;20.30;17.50;;;;;;;14.78;100.00;99398.13;104357;1259;61681;-59
2023/10/22 02:03:33;;;;;;;20.80;18.50;;;;;;;14.79;100.00;99401.27;104561;1259;60615;-59
2023/10/22 02:06:02;;;;;;;22.80;17.40;;;;;;;14.79;100.00;99401.27;104332;1255;74264;-61
2023/10/22 02:08:29;;;;;;;40.50;18.30;;;;;;;14.77;100.00;99407.34;104567;1253;69259;-59
2023/10/22 02:10:56;;;;;;;18.40;16.50;;;;;;;14.78;100.00;99404.66;104438;1258;72289;-59
2023/10/22 02:13:23;;;;;;;18.00;16.20;;;;;;;14.80;100.00;99403.85;104303;1254;62296;-59
2023/10/22 02:15:50;;;;;;;22.10;16.10;;;;;;;14.80;100.00;99405.09;104439;1257;60959;-59
2023/10/22 02:18:16;;;;;;;16.40;14.80;;;;;;;14.80;100.00;99407.58;104404;1265;73255;-60
2023/10/22 02:21:00;;;;;;;20.20;14.80;;;;;;;14.81;100.00;99396.02;104446;1256;70302;-59
2023/10/22 02:23:27;;;;;;;15.40;13.80;;;;;;;14.79;100.00;99391.72;104286;1265;73206;-59
2023/10/22 02:25:54;;;;;;;18.60;14.70;;;;;;;14.78;100.00;99392.86;104486;1256;62260;-59
2023/10/22 02:28:21;;;;;;;14.90;13.20;;;;;;;14.79;100.00;99389.06;104458;1272;59842;-59
2023/10/22 02:30:48;;;;;;;35.40;14.10;;;;;;;14.77;100.00;99385.32;104490;1257;73993;-60
2023/10/22 02:33:15;;;;;;;19.00;14.50;;;;;;;14.76;100.00;99389.64;104421;1259;69345;-60
2023/10/22 02:35:46;;;;;;;15.60;13.90;;;;;;;14.78;100.00;99390.23;104351;1269;73175;-59
2023/10/22 02:38:14;;;;;;;27.30;13.90;;;;;;;14.79;100.00;99387.13;104313;1272;61151;-59
2023/10/22 02:40:42;;;;;;;21.80;14.80;;;;;;;14.80;100.00;99386.93;104485;1257;60763;-59
2023/10/22 02:43:08;;;;;;;21.60;14.50;;;;;;;14.79;100.00;99393.48;104312;1265;72353;-59
2023/10/22 02:45:35;;;;;;;21.50;15.10;;;;;;;14.79;100.00;99391.73;104471;1254;69727;-59
2023/10/22 02:48:02;;;;;;;19.50;14.80;;;;;;;14.79;100.00;99389.41;104443;1254;72468;-59
2023/10/22 02:50:29;;;;;;;20.20;16.70;;;;;;;14.79;100.00;99396.34;104382;1260;61201;-59
2023/10/22 02:52:56;;;;;;;24.60;15.90;;;;;;;14.82;100.00;99393.66;107099;1253;60869;-59
2023/10/22 02:55:23;;;;;;;18.30;14.50;;;;;;;14.86;100.00;99390.06;107989;1256;74136;-58
2023/10/22 02:57:50;;;;;;;18.90;15.30;;;;;;;14.90;100.00;99396.86;104748;1269;69516;-59
2023/10/22 03:00:19;;;;;;;24.60;15.10;;;;;;;14.91;100.00;99396.10;104501;1253;72359;-59
2023/10/22 03:03:05;;;;;;;21.00;14.20;;;;;;;14.94;100.00;99394.30;104753;1256;61708;-61
2023/10/22 03:05:33;;;;;;;37.90;14.30;;;;;;;14.96;100.00;99385.67;104585;1258;60496;-59
2023/10/22 03:08:00;;;;;;;16.20;14.60;;;;;;;14.96;100.00;99384.65;104606;1256;73857;-59
2023/10/22 03:10:27;;;;;;;19.40;14.30;;;;;;;14.94;100.00;99380.38;104268;1265;69913;-59
2023/10/22 03:12:54;;;;;;;23.20;14.40;;;;;;;14.93;100.00;99371.98;104377;1259;72303;-59
2023/10/22 03:15:21;;;;;;;16.30;14.40;;;;;;;14.93;100.00;99365.95;104450;1265;62720;-59
2023/10/22 03:17:48;;;;;;;21.90;15.00;;;;;;;14.93;100.00;99358.72;104426;1269;60386;-59
2023/10/22 03:20:18;;;;;;;21.70;15.80;;;;;;;14.91;100.00;99355.86;104282;1253;74271;-59
2023/10/22 03:22:46;;;;;;;37.70;16.40;;;;;;;14.89;100.00;99352.45;104766;1253;68121;-59
2023/10/22 03:25:13;;;;;;;37.20;17.20;;;;;;;14.89;100.00;99357.91;108283;1253;72039;-59
2023/10/22 03:27:42;;;;;;;20.40;16.70;;;;;;;14.91;100.00;99362.73;105098;1253;60692;-59
2023/10/22 03:30:13;;;;;;;19.70;16.00;;;;;;;14.89;100.00;99361.61;104553;1268;60531;-59
2023/10/22 03:32:40;;;;;;;17.00;15.00;;;;;;;14.91;100.00;99364.48;104734;1259;73636;-59
2023/10/22 03:35:08;;;;;;;26.70;14.50;;;;;;;14.90;100.00;99364.89;104385;1253;69747;-59
2023/10/22 03:37:34;;;;;;;17.10;14.00;;;;;;;14.88;100.00;99361.17;104684;1253;73020;-60
2023/10/22 03:40:02;;;;;;;23.10;16.00;;;;;;;14.86;100.00;99355.66;104389;1254;61949;-59
2023/10/22 03:42:29;;;;;;;15.10;13.60;;;;;;;14.90;100.00;99358.05;104286;1263;60503;-59
2023/10/22 03:44:56;;;;;;;19.10;14.60;;;;;;;14.87;100.00;99362.48;104324;1260;74478;-59
2023/10/22 03:47:23;;;;;;;23.20;15.70;;;;;;;14.87;100.00;99355.41;104429;1259;69824;-59
2023/10/22 03:49:51;;;;;;;;;;;;;;;14.92;100.00;99356.65;105552;1253;73165;-60
2023/10/22 03:52:18;;;;;;;15.60;12.70;;;;;;;14.94;100.00;99356.58;104227;1275;63387;-59
2023/10/22 03:54:44;;;;;;;20.20;13.20;;;;;;;14.94;100.00;99354.41;108117;1253;60699;-59
2023/10/22 03:57:11;;;;;;;21.30;13.30;;;;;;;14.94;100.00;99351.79;105982;1257;73561;-59
2023/10/22 03:59:38;;;;;;;24.50;14.30;;;;;;;14.97;100.00;99353.70;104618;1267;70037;-59
2023/10/22 04:02:05;;;;;;;16.40;14.00;;;;;;;14.97;100.00;99355.27;104317;1255;72392;-60
2023/10/22 04:04:32;;;;;;;20.90;14.90;;;;;;;14.99;100.00;99354.60;104453;1269;60683;-59
2023/10/22 04:07:02;;;;;;;22.00;15.10;;;;;;;15.01;100.00;99357.70;104006;1269;448920;-60
2023/10/22 04:10:46;;;;;;;28.30;14.90;;;;;;;14.39;100.00;99355.20;101290;1296;600822;-60
2023/10/22 04:13:13;;;;;;;15.10;13.50;;;;;;;14.84;100.00;99356.16;103564;1267;61495;-60
2023/10/22 04:15:41;;;;;;;19.70;13.30;;;;;;;14.88;100.00;99355.31;104384;1260;59632;-60
2023/10/22 04:18:09;;;;;;;41.10;15.40;;;;;;;14.92;100.00;99353.48;104557;1260;71814;-61
2023/10/22 04:20:37;;;;;;;25.50;15.10;;;;;;;14.92;100.00;99353.81;104246;1258;69058;-60
2023/10/22 04:23:04;;;;;;;19.80;14.70;;;;;;;14.91;100.00;99354.98;104335;1261;73167;-61
2023/10/22 04:25:39;;;;;;;19.90;14.10;;;;;;;14.91;100.00;99347.56;104181;1267;231188;-64
2023/10/22 04:28:07;;;;;;;50.80;15.40;;;;;;;14.92;100.00;99347.51;104421;1262;60739;-60
2023/10/22 04:30:41;;;;;;;28.70;15.10;;;;;;;14.92;100.00;99348.77;104356;1266;71956;-60
2023/10/22 04:33:09;;;;;;;21.90;14.50;;;;;;;14.89;100.00;99344.89;104435;1256;69060;-59
2023/10/22 04:35:37;;;;;;;17.60;15.60;;;;;;;14.89;100.00;99341.91;104383;1259;72703;-60
2023/10/22 04:38:04;;;;;;;48.50;14.00;;;;;;;14.90;100.00;99338.79;104323;1258;61512;-60
2023/10/22 04:40:33;;;;;;;;;;;;;;;14.89;100.00;99341.02;104448;1257;59857;-60
2023/10/22 04:43:01;;;;;;;28.50;14.90;;;;;;;14.88;100.00;99344.43;104468;1256;73247;-60
2023/10/22 04:45:29;;;;;;;17.20;15.50;;;;;;;14.86;100.00;99348.23;108577;1251;69765;-60
2023/10/22 04:47:57;;;;;;;22.40;15.00;;;;;;;14.88;100.00;99347.91;108522;1251;73797;-64
2023/10/22 04:50:25;;;;;;;19.40;15.00;;;;;;;14.89;100.00;99344.85;108479;1255;60711;-61
2023/10/22 04:52:52;;;;;;;17.20;15.50;;;;;;;14.87;100.00;99346.25;108490;1251;59737;-61
2023/10/22 04:55:20;;;;;;;25.60;15.20;;;;;;;14.89;100.00;99348.06;108374;1251;71825;-60
2023/10/22 04:57:48;;;;;;;16.10;14.10;;;;;;;14.93;100.00;99343.73;108373;1251;70077;-60
2023/10/22 05:00:16;;;;;;;19.80;15.80;;;;;;;14.97;100.00;99348.54;108398;1251;72430;-61
2023/10/22 05:02:47;;;;;;;24.20;15.30;;;;;;;14.99;100.00;99349.70;108402;1253;62029;-60
2023/10/22 05:05:14;;;;;;;33.60;15.90;;;;;;;15.02;100.00;99350.92;108455;1252;59814;-61
2023/10/22 05:07:42;;;;;;;36.70;16.50;;;;;;;15.02;100.00;99354.45;108561;1251;73302;-61
2023/10/22 05:10:10;;;;;;;;;;;;;;;15.02;100.00;99360.09;108486;1251;69176;-62
2023/10/22 05:12:38;;;;;;;38.20;16.20;;;;;;;15.05;100.00;99360.58;108434;1254;71198;-66
2023/10/22 05:15:06;;;;;;;27.20;17.10;;;;;;;15.09;100.00;99363.36;108483;1254;61405;-62
2023/10/22 05:17:34;;;;;;;23.00;17.10;;;;;;;15.13;100.00;99363.23;108453;1253;59709;-62
2023/10/22 05:20:03;;;;;;;;;;;;;;;15.14;100.00;99364.23;108496;1253;72743;-62
2023/10/22 05:22:32;;;;;;;24.00;16.00;;;;;;;15.13;100.00;99363.56;108348;1252;69037;-62
2023/10/22 05:25:00;;;;;;;22.20;19.60;;;;;;;15.16;100.00;99367.98;108453;1252;72889;-62
2023/10/22 05:27:27;;;;;;;;;;;;;;;15.20;100.00;99365.05;108383;1253;60869;-62
2023/10/22 05:29:55;;;;;;;20.20;17.50;;;;;;;15.22;100.00;99366.87;108325;1253;59538;-61
2023/10/22 05:32:23;;;;;;;20.90;17.10;;;;;;;15.24;100.00;99362.55;108340;1253;73153;-62
2023/10/22 05:34:51;;;;;;;30.20;17.50;;;;;;;15.26;100.00;99365.91;108442;1253;69153;-62
2023/10/22 05:37:18;;;;;;;23.10;18.40;;;;;;;15.27;100.00;99373.30;108197;1253;72344;-62
2023/10/22 05:39:46;;;;;;;47.30;19.40;;;;;;;15.27;100.00;99383.36;108332;1253;61408;-61
2023/10/22 05:45:06;;;;;;;36.60;20.30;;;;;;;15.28;100.00;99398.13;101886;1289;600504;-63
2023/10/22 05:47:34;;;;;;;26.90;20.00;;;;;;;15.22;100.00;99403.05;103727;1267;62560;-62
2023/10/22 05:50:04;;;;;;;26.80;19.40;;;;;;;15.22;100.00;99402.35;103812;1269;59698;-61
2023/10/22 05:52:32;;;;;;;45.40;22.30;;;;;;;15.27;100.00;99408.41;104305;1258;72174;-62
2023/10/22 05:55:00;;;;;;;;;;;;;;;15.28;100.00;99412.25;104517;1257;69354;-62
2023/10/22 05:57:28;;;;;;;36.00;20.80;;;;;;;15.25;100.00;99416.70;106116;1257;71555;-62
2023/10/22 05:59:57;;;;;;;29.00;22.10;;;;;;;15.24;100.00;99424.13;104429;1254;282584;-63
2023/10/22 16:27:02;;;;;;;25.70;20.00;;;;;;;17.92;100.00;98880.52;101595;1290;600910;-58
2023/10/22 16:29:30;;;;;;;35.70;21.50;;;;;;;18.33;100.00;98876.89;103885;1266;61500;-58
2023/10/22 16:31:58;;;;;;;31.40;22.40;;;;;;;18.34;100.00;98871.30;104293;1263;59679;-58
2023/10/22 16:34:28;;;;;;;29.00;20.80;;;;;;;18.35;100.00;98871.19;104193;1267;70898;-58
2023/10/22 16:36:55;;;;;;;29.70;21.90;;;;;;;18.33;100.00;98871.58;103976;1263;69168;-58
2023/10/22 16:39:25;;;;;;;31.60;21.40;;;;;;;18.31;100.00;98870.36;103888;1269;73256;-57
2023/10/22 16:41:54;;;;;;;27.70;20.70;;;;;;;18.25;100.00;98870.62;104092;1262;62092;-57
2023/10/22 16:44:25;;;;;;;32.60;20.60;;;;;;;18.23;100.00;98870.45;104389;1274;60286;-58
2023/10/22 16:46:53;;;;;;;27.90;20.80;;;;;;;18.21;100.00;98877.04;104207;1273;71678;-61
2023/10/22 16:49:21;;;;;;;29.10;20.70;;;;;;;18.17;100.00;98876.45;104406;1261;69450;-60
2023/10/22 16:51:49;;;;;;;30.00;19.90;;;;;;;18.09;100.00;98873.27;104404;1260;74782;-61
2023/10/22 16:54:16;;;;;;;29.10;19.30;;;;;;;18.03;100.00;98875.52;104312;1258;60295;-60
2023/10/22 16:56:44;;;;;;;28.60;19.50;;;;;;;18.00;100.00;98879.50;104199;1257;62162;-60
2023/10/22 16:59:12;;;;;;;29.10;19.30;;;;;;;18.00;100.00;98873.91;104221;1260;72858;-60
2023/10/22 17:01:41;;;;;;;22.00;17.90;;;;;;;17.98;100.00;98874.57;106598;1255;69185;-61
2023/10/22 17:04:11;;;;;;;24.80;18.50;;;;;;;17.96;100.00;98870.66;107703;1257;72480;-61
2023/10/22 17:06:39;;;;;;;24.90;18.50;;;;;;;17.95;100.00;98865.23;104523;1261;62075;-61
2023/10/22 17:09:09;;;;;;;25.10;19.50;;;;;;;17.90;100.00;98871.13;104908;1260;61812;-60
2023/10/22 17:11:37;;;;;;;26.80;19.80;;;;;;;17.90;100.00;98876.12;104572;1260;72902;-61
2023/10/22 17:14:05;;;;;;;30.50;19.60;;;;;;;17.86;100.00;98866.91;104239;1277;69964;-62
2023/10/22 17:16:33;;;;;;;29.50;19.00;;;;;;;17.85;100.00;98868.77;104599;1260;71977;-62
2023/10/22 17:19:04;;;;;;;27.60;20.30;;;;;;;17.83;100.00;98868.90;104456;1257;62000;-61
2023/10/22 17:21:32;;;;;;;29.30;20.10;;;;;;;17.81;100.00;98865.30;104490;1257;59748;-62
2023/10/22 17:24:00;;;;;;;27.50;19.80;;;;;;;17.81;100.00;98862.98;104384;1263;75399;-61
2023/10/22 17:26:28;;;;;;;24.70;19.10;;;;;;;17.77;100.00;98863.23;104538;1254;72891;-62
2023/10/22 17:29:00;;;;;;;27.20;20.00;;;;;;;17.72;100.00;98869.65;104471;1253;72382;-63
2023/10/22 17:31:29;;;;;;;24.70;19.60;;;;;;;17.69;100.00;98869.57;104281;1257;61419;-61
2023/10/22 17:33:57;;;;;;;25.00;18.70;;;;;;;17.69;100.00;98870.04;104451;1260;59714;-64
2023/10/22 17:36:32;;;;;;;25.10;18.50;;;;;;;17.64;100.00;98871.54;104313;1269;73221;-63
2023/10/22 17:39:03;;;;;;;24.50;19.40;;;;;;;17.60;100.00;98869.78;104265;1270;71410;-62
2023/10/22 17:41:31;;;;;;;;;;;;;;;17.58;100.00;98867.45;104415;1254;73513;-62
2023/10/22 17:43:58;;;;;;;22.70;17.10;;;;;;;17.58;100.00;98870.33;106352;1259;60869;-62
2023/10/22 17:46:26;;;;;;;27.00;19.40;;;;;;;17.55;100.00;98876.73;106364;1254;59724;-60
2023/10/22 17:48:56;;;;;;;26.50;21.00;;;;;;;17.52;100.00;98876.30;108018;1254;74669;-61
2023/10/22 17:51:23;;;;;;;27.40;20.80;;;;;;;17.53;100.00;98878.70;105005;1259;70358;-61
2023/10/22 17:53:52;;;;;;;29.50;22.90;;;;;;;17.47;100.00;98878.27;104369;1268;74549;-61
2023/10/22 17:56:23;;;;;;;29.30;20.30;;;;;;;17.43;100.00;98880.04;104766;1254;61921;-62
2023/10/22 18:10:24;;;;;;;20.10;17.00;;;;;;;17.51;100.00;98879.17;104645;1254;72901;-63
2023/10/22 18:15:26;;;;;;;24.00;17.90;;;;;;;17.50;100.00;98881.54;104366;1273;73098;-61
2023/10/22 18:20:28;;;;;;;27.20;19.10;;;;;;;17.48;100.00;98881.73;104342;1259;60645;-63
2023/10/22 18:25:30;;;;;;;25.20;18.30;;;;;;;17.42;100.00;98876.96;104422;1254;61771;-61
2023/10/22 18:30:32;;;;;;;26.80;20.10;;;;;;;17.41;100.00;98880.56;104319;1254;72115;-62
2023/10/22 18:35:33;;;;;;;28.20;21.90;;;;;;;17.35;100.00;98883.86;104431;1264;69454;-62
2023/10/22 18:40:34;;;;;;;32.60;23.40;;;;;;;17.32;100.00;98884.66;104342;1266;73593;-61
2023/10/22 18:45:36;;;;;;;28.00;21.70;;;;;;;17.37;100.00;98878.95;104468;1254;63313;-61
2023/10/22 18:56:03;;;;;;;24.10;17.50;;;;;;;17.54;100.00;98885.13;104554;1258;74441;-60
2023/10/22 19:01:04;;;;;;;22.90;17.10;;;;;;;17.66;100.00;98880.63;104294;1257;70790;-60
2023/10/22 19:06:06;;;;;;;24.60;16.00;;;;;;;17.77;100.00;98883.61;104377;1260;74095;-60
2023/10/22 19:11:08;;;;;;;24.80;15.50;;;;;;;17.92;100.00;98887.49;104383;1259;61790;-61
2023/10/22 19:19:18;;;;;;;22.90;14.40;;;;;;;18.14;100.00;98884.70;104264;1276;73391;-61
2023/10/22 19:21:46;;;;;;;26.00;15.00;;;;;;;18.16;100.00;98879.76;104187;1257;69044;-60
2023/10/22 19:24:14;;;;;;;24.80;15.40;;;;;;;18.18;100.00;98874.98;104113;1264;72511;-60
2023/10/22 19:26:44;;;;;;;21.60;14.60;;;;;;;18.22;100.00;98871.75;104051;1262;61510;-60
2023/10/22 19:29:12;;;;;;;25.50;15.40;;;;;;;18.24;100.00;98872.88;104043;1277;59971;-61
2023/10/22 19:31:41;;;;;;;33.80;15.20;;;;;;;18.25;100.00;98874.51;104310;1257;73165;-61
2023/10/22 19:34:09;;;;;;;28.40;14.50;;;;;;;18.30;100.00;98873.73;104256;1262;69214;-61
2023/10/22 19:36:37;;;;;;;25.80;14.90;;;;;;;18.34;100.00;98872.72;104187;1271;73339;-61
2023/10/22 19:39:05;;;;;;;;;;;;;;;18.38;100.00;98870.92;104114;1259;60695;-60
2023/10/22 19:41:33;;;;;;;26.50;14.60;;;;;;;18.41;100.00;98866.79;104161;1262;59735;-61
2023/10/22 19:44:01;;;;;;;23.70;14.40;;;;;;;18.45;100.00;98861.66;107963;1256;72883;-61
2023/10/22 19:46:29;;;;;;;27.20;14.20;;;;;;;18.48;100.00;98863.86;107804;1256;68196;-60
2023/10/22 19:48:57;;;;;;;33.70;14.30;;;;;;;18.55;100.00;98859.91;107952;1256;72557;-61
2023/10/22 19:51:24;;;;;;;25.10;14.20;;;;;;;18.61;100.00;98856.83;107733;1256;60536;-60
2023/10/22 19:53:53;;;;;;;;;;;;;;;18.67;100.00;98857.22;107838;1255;61181;-58
2023/10/22 19:56:21;;;;;;;26.00;13.30;;;;;;;18.73;100.00;98855.97;108038;1256;73501;-58
2023/10/22 19:58:51;;;;;;;27.20;13.70;;;;;;;18.82;100.00;98859.25;107766;1256;69386;-58
2023/10/22 20:01:19;;;;;;;23.30;13.30;;;;;;;18.88;100.00;98858.73;108093;1256;71440;-58
2023/10/22 20:03:55;;;;;;;27.60;14.30;;;;;;;18.91;100.00;98858.29;107879;1257;61590;-58
2023/10/22 20:06:23;;;;;;;;;;;;;;;18.95;100.00;98856.92;108003;1256;58848;-60
2023/10/22 20:19:16;;;;;;;25.20;12.40;;;;;;;19.05;100.00;98865.77;108262;1254;71312;-59
2023/10/22 20:21:44;;;;;;;22.20;13.00;;;;;;;19.03;100.00;98863.09;108264;1254;62343;-59
2023/10/22 20:24:12;;;;;;;21.70;13.30;;;;;;;19.02;100.00;98860.18;108210;1254;60072;-59
2023/10/22 20:26:40;;;;;;;21.10;13.00;;;;;;;19.02;100.00;98857.46;108303;1254;72889;-60
2023/10/22 20:29:08;;;;;;;25.30;14.60;;;;;;;19.05;100.00;98857.23;108609;1251;67998;-60
2023/10/22 20:31:36;;;;;;;28.30;13.50;;;;;;;19.05;100.00;98859.21;108553;1251;71205;-59
2023/10/22 20:34:04;;;;;;;;;;;;;;;19.03;100.00;98857.58;108540;1251;61775;-60
2023/10/22 20:36:31;;;;;;;;;;;;;;;19.03;100.00;98855.06;108536;1251;59796;-60
2023/10/22 20:38:59;;;;;;;21.10;12.10;;;;;;;19.04;100.00;98854.30;108470;1251;72912;-60
2023/10/22 20:41:27;;;;;;;22.10;11.50;;;;;;;19.02;100.00;98854.86;108540;1250;68048;-60
2023/10/22 20:43:55;;;;;;;21.50;12.80;;;;;;;19.02;100.00;98853.55;108593;1252;73355;-60
2023/10/22 20:46:22;;;;;;;23.20;12.90;;;;;;;19.02;100.00;98856.41;108532;1251;60416;-59
2023/10/22 20:48:52;;;;;;;24.80;13.30;;;;;;;19.03;100.00;98861.34;108542;1251;59678;-60
2023/10/22 20:51:20;;;;;;;22.80;13.00;;;;;;;19.03;100.00;98858.64;108539;1251;73044;-60
2023/10/22 20:53:48;;;;;;;23.50;12.80;;;;;;;19.06;100.00;98863.66;108406;1254;69185;-60
2023/10/22 20:56:15;;;;;;;18.10;12.40;;;;;;;19.01;100.00;98864.89;108408;1254;72693;-60
2023/10/22 20:58:43;;;;;;;;;;;;;;;18.98;100.00;98870.83;108472;1251;61551;-60
2023/10/22 21:01:15;;;;;;;;;;;;;;;18.94;100.00;98874.15;108554;1251;60469;-60
2023/10/22 21:03:43;;;;;;;27.80;10.90;;;;;;;18.93;100.00;98874.48;108430;1251;73001;-60
2023/10/22 21:06:13;;;;;;;22.50;10.90;;;;;;;18.88;100.00;98871.54;108437;1251;69120;-60
2023/10/22 21:08:41;;;;;;;24.10;11.10;;;;;;;18.94;100.00;98878.27;108366;1251;72913;-60
2023/10/22 21:11:10;;;;;;;24.70;11.60;;;;;;;18.90;100.00;98872.83;108357;1254;61838;-59
2023/10/22 21:13:37;;;;;;;21.10;11.10;;;;;;;18.89;100.00;98874.98;108543;1251;60154;-60
2023/10/22 21:16:06;;;;;;;21.90;11.40;;;;;;;18.89;100.00;98876.23;108387;1251;71521;-60
2023/10/22 21:18:38;;;;;;;29.30;10.70;;;;;;;18.90;100.00;98875.05;108424;1251;70043;-61
2023/10/22 21:21:05;;;;;;;23.60;10.80;;;;;;;18.88;100.00;98872.46;108507;1251;73049;-60
2023/10/22 21:23:33;;;;;;;19.00;10.50;;;;;;;18.85;100.00;98871.26;108543;1251;60993;-60
2023/10/22 21:26:05;;;;;;;21.30;10.70;;;;;;;18.86;100.00;98871.31;108504;1251;59682;-60
2023/10/22 21:28:33;;;;;;;;;;;;;;;18.87;100.00;98865.93;108475;1252;74082;-60
2023/10/22 21:31:04;;;;;;;19.20;10.00;;;;;;;18.87;100.00;98868.42;108587;1251;70004;-60
2023/10/22 21:33:31;;;;;;;21.40;10.10;;;;;;;18.87;100.00;98870.59;108478;1251;73452;-59
2023/10/22 21:36:03;;;;;;;19.80;10.80;;;;;;;18.85;100.00;98867.39;108580;1251;60915;-59
2023/10/22 21:38:31;;;;;;;27.20;10.60;;;;;;;18.86;100.00;98866.95;108589;1251;59672;-60
2023/10/22 21:40:59;;;;;;;26.60;9.70;;;;;;;18.83;100.00;98872.14;108548;1251;74457;-59
2023/10/22 21:43:27;;;;;;;24.90;9.80;;;;;;;18.80;100.00;98880.77;108477;1255;68057;-59
2023/10/22 21:46:07;;;;;;;24.10;9.50;;;;;;;18.79;100.00;98886.15;108541;1251;73401;-60
2023/10/22 21:48:36;;;;;;;21.30;10.00;;;;;;;18.77;100.00;98895.56;108539;1251;61417;-60
2023/10/22 21:51:04;;;;;;;19.30;9.70;;;;;;;18.72;100.00;98894.96;108573;1251;58976;-59
2023/10/22 21:53:32;;;;;;;17.00;9.20;;;;;;;18.74;100.00;98897.60;108323;1256;73702;-59
2023/10/22 21:56:00;;;;;;;21.10;10.10;;;;;;;18.74;100.00;98892.11;108372;1251;69404;-58
2023/10/22 21:58:30;;;;;;;18.40;9.50;;;;;;;18.73;100.00;98887.36;108349;1251;72873;-60
2023/10/22 22:00:59;;;;;;;17.40;9.10;;;;;;;18.77;100.00;98877.43;108508;1254;62064;-60
2023/10/22 22:03:28;;;;;;;17.60;9.70;;;;;;;18.79;100.00;98878.87;108574;1253;59851;-59
2023/10/22 22:05:56;;;;;;;20.40;9.10;;;;;;;18.80;100.00;98877.92;108462;1251;73586;-60
2023/10/22 22:08:24;;;;;;;;;;;;;;;18.80;100.00;98878.26;108597;1251;69186;-63
2023/10/22 22:10:51;;;;;;;;;;;;;;;18.77;100.00;98877.77;108487;1251;71921;-60
2023/10/22 22:13:19;;;;;;;17.90;8.80;;;;;;;18.74;100.00;98879.11;108558;1254;61373;-60
2023/10/22 22:15:47;;;;;;;18.90;8.70;;;;;;;18.68;100.00;98880.36;108497;1251;60241;-60
2023/10/22 22:18:15;;;;;;;16.10;9.00;;;;;;;18.64;100.00;98881.46;108625;1251;74072;-60
2023/10/22 22:20:42;;;;;;;23.30;9.10;;;;;;;18.60;100.00;98888.33;108407;1252;68252;-60
2023/10/22 22:23:10;;;;;;;18.70;10.00;;;;;;;18.58;100.00;98889.04;108414;1254;72992;-60
2023/10/22 22:25:38;;;;;;;17.90;9.10;;;;;;;18.59;100.00;98883.48;108506;1253;62363;-60
2023/10/22 22:28:14;;;;;;;19.40;8.50;;;;;;;18.59;100.00;98882.45;108539;1254;59697;-60
2023/10/22 22:30:42;;;;;;;23.20;9.20;;;;;;;18.60;100.00;98883.95;108524;1253;73756;-60
2023/10/22 22:33:10;;;;;;;14.30;8.10;;;;;;;18.60;100.00;98881.78;108387;1252;70016;-60
2023/10/22 22:35:37;;;;;;;21.50;9.10;;;;;;;18.62;100.00;98880.70;108532;1253;72431;-61
2023/10/22 22:38:05;;;;;;;;;;;;;;;18.61;100.00;98883.33;108340;1258;61754;-60
2023/10/22 22:40:33;;;;;;;19.50;8.40;;;;;;;18.59;100.00;98881.36;108339;1253;58483;-59